KHKS/HKS METAR and TAF weather

Enter ICAO airport designator
Station Type Date Time Source
KHKS METAR 2019/05/20 09:53 UTC NOAA

KHKS 200953Z AUTO 17005KT 10SM SCT006 OVC050 21/21 A3002 RMK AO2 SLP156 T02110206


Station Type Date Time Source
KHKS Decoded METAR 2019/05/20 09:53 UTC NOAA

HAWKINS FIELD, MS, United States (KHKS) 32-20N 090-13W 108M
May 20, 2019 - 05:53 AM EDT / 2019.05.20 0953 UTC
Wind: from the S (170 degrees) at 6 MPH (5 KT):0
Visibility: 10 mile(s):0
Sky conditions: overcast
Temperature: 70.0 F (21.1 C)
Dew Point: 69.1 F (20.6 C)
Relative Humidity: 96%
Pressure (altimeter): 30.02 in. Hg (1016 hPa)
ob: KHKS 200953Z AUTO 17005KT 10SM SCT006 OVC050 21/21 A3002 RMK AO2 SLP156 T02110206
cycle: 10

Station Type Date Time Source
KHKS TAF 2019/05/20 09:12 UTC NOAA

TAF
AMD KHKS 200909Z 2009/2106 16006KT 6SM BR BKN003 OVC005
FM201300 16003KT P6SM BKN008
FM201400 00000KT P6SM BKN015
FM201500 16006KT P6SM FEW035 SCT250

Example: see airport list